sensor_id;sensor_type;location;lat;lon;timestamp;pressure;altitude;pressure_sealevel;temperature;humidity
59391;BME280;53405;57.012;40.984;2022-09-03T00:02:42;100224.22;;;9.24;81.27
59391;BME280;53405;57.012;40.984;2022-09-03T00:05:53;100224.38;;;9.39;80.16
59391;BME280;53405;57.012;40.984;2022-09-03T00:08:54;100221.41;;;9.42;79.28
59391;BME280;53405;57.012;40.984;2022-09-03T00:12:07;100226.84;;;9.32;80.52
59391;BME280;53405;57.012;40.984;2022-09-03T00:17:57;100231.91;;;9.50;79.15
59391;BME280;53405;57.012;40.984;2022-09-03T00:20:57;100237.66;;;9.46;78.00
59391;BME280;53405;57.012;40.984;2022-09-03T00:23:55;100244.75;;;9.37;78.65
59391;BME280;53405;57.012;40.984;2022-09-03T00:26:58;100218.94;;;9.16;78.51
59391;BME280;53405;57.012;40.984;2022-09-03T00:30:08;100237.84;;;9.28;79.63
59391;BME280;53405;57.012;40.984;2022-09-03T00:33:06;100238.69;;;9.45;78.06
59391;BME280;53405;57.012;40.984;2022-09-03T00:38:50;100229.97;;;9.52;78.77
59391;BME280;53405;57.012;40.984;2022-09-03T00:45:08;100229.94;;;9.36;78.74
59391;BME280;53405;57.012;40.984;2022-09-03T00:48:18;100240.31;;;9.54;78.49
59391;BME280;53405;57.012;40.984;2022-09-03T00:51:15;100250.16;;;9.44;78.04
59391;BME280;53405;57.012;40.984;2022-09-03T00:57:47;100258.22;;;9.34;79.35
59391;BME280;53405;57.012;40.984;2022-09-03T01:00:41;100266.44;;;9.55;78.68
59391;BME280;53405;57.012;40.984;2022-09-03T01:10:29;100272.16;;;9.26;79.36
59391;BME280;53405;57.012;40.984;2022-09-03T01:13:35;100270.53;;;9.33;79.15
59391;BME280;53405;57.012;40.984;2022-09-03T01:25:51;100266.44;;;9.31;79.52
59391;BME280;53405;57.012;40.984;2022-09-03T01:29:07;100277.41;;;9.34;78.80
59391;BME280;53405;57.012;40.984;2022-09-03T01:32:09;100280.69;;;9.28;78.97
59391;BME280;53405;57.012;40.984;2022-09-03T01:54:30;100289.75;;;8.75;77.58
59391;BME280;53405;57.012;40.984;2022-09-03T02:01:02;100302.72;;;8.76;78.77
59391;BME280;53405;57.012;40.984;2022-09-03T02:03:53;100301.38;;;8.64;77.85
59391;BME280;53405;57.012;40.984;2022-09-03T02:06:47;100312.38;;;8.41;79.84
59391;BME280;53405;57.012;40.984;2022-09-03T02:09:35;100318.91;;;8.55;79.95
59391;BME280;53405;57.012;40.984;2022-09-03T02:12:22;100314.09;;;8.50;79.53
59391;BME280;53405;57.012;40.984;2022-09-03T02:15:16;100321.06;;;8.68;78.70
59391;BME280;53405;57.012;40.984;2022-09-03T02:18:09;100331.59;;;8.68;78.87
59391;BME280;53405;57.012;40.984;2022-09-03T02:21:00;100312.38;;;8.67;78.63
59391;BME280;53405;57.012;40.984;2022-09-03T02:23:48;100341.50;;;8.91;77.79
59391;BME280;53405;57.012;40.984;2022-09-03T02:26:36;100343.31;;;8.82;77.17
59391;BME280;53405;57.012;40.984;2022-09-03T02:29:24;100341.47;;;8.48;78.81
59391;BME280;53405;57.012;40.984;2022-09-03T02:32:11;100343.50;;;8.54;79.00
59391;BME280;53405;57.012;40.984;2022-09-03T02:35:01;100346.84;;;8.64;77.92
59391;BME280;53405;57.012;40.984;2022-09-03T02:37:49;100344.72;;;8.68;77.97
59391;BME280;53405;57.012;40.984;2022-09-03T02:40:36;100343.63;;;8.53;78.12
59391;BME280;53405;57.012;40.984;2022-09-03T02:46:40;100352.63;;;8.76;77.96
59391;BME280;53405;57.012;40.984;2022-09-03T02:49:30;100353.63;;;8.75;77.75
59391;BME280;53405;57.012;40.984;2022-09-03T02:52:18;100333.59;;;8.48;78.04
59391;BME280;53405;57.012;40.984;2022-09-03T02:55:06;100365.91;;;8.75;77.88
59391;BME280;53405;57.012;40.984;2022-09-03T02:57:54;100359.19;;;8.72;77.78
59391;BME280;53405;57.012;40.984;2022-09-03T03:00:43;100367.13;;;8.89;77.86
59391;BME280;53405;57.012;40.984;2022-09-03T03:03:31;100367.84;;;8.99;76.62
59391;BME280;53405;57.012;40.984;2022-09-03T03:06:19;100371.06;;;8.84;76.46
59391;BME280;53405;57.012;40.984;2022-09-03T03:09:07;100373.75;;;9.01;76.80
59391;BME280;53405;57.012;40.984;2022-09-03T03:11:55;100385.75;;;9.03;76.57
59391;BME280;53405;57.012;40.984;2022-09-03T03:14:43;100396.72;;;8.99;76.64
59391;BME280;53405;57.012;40.984;2022-09-03T03:17:31;100398.59;;;8.80;77.40
59391;BME280;53405;57.012;40.984;2022-09-03T03:20:18;100364.94;;;8.76;76.44
59391;BME280;53405;57.012;40.984;2022-09-03T03:23:07;100402.00;;;8.99;75.59
59391;BME280;53405;57.012;40.984;2022-09-03T03:26:00;100396.81;;;8.89;76.15
59391;BME280;53405;57.012;40.984;2022-09-03T03:28:49;100380.84;;;8.74;76.69
59391;BME280;53405;57.012;40.984;2022-09-03T03:31:37;100398.78;;;8.87;77.14
59391;BME280;53405;57.012;40.984;2022-09-03T03:34:25;100416.38;;;8.86;75.53
59391;BME280;53405;57.012;40.984;2022-09-03T03:37:13;100415.13;;;8.73;78.13
59391;BME280;53405;57.012;40.984;2022-09-03T03:40:02;100423.19;;;9.06;76.71
59391;BME280;53405;57.012;40.984;2022-09-03T03:42:50;100421.69;;;9.03;75.00
59391;BME280;53405;57.012;40.984;2022-09-03T03:45:37;100425.97;;;9.04;75.11
59391;BME280;53405;57.012;40.984;2022-09-03T03:48:25;100439.88;;;8.96;76.55
59391;BME280;53405;57.012;40.984;2022-09-03T03:51:13;100439.34;;;8.84;76.55
59391;BME280;53405;57.012;40.984;2022-09-03T03:54:00;100442.69;;;9.03;75.46
59391;BME280;53405;57.012;40.984;2022-09-03T03:56:50;100432.81;;;8.97;75.62
59391;BME280;53405;57.012;40.984;2022-09-03T03:59:38;100418.41;;;8.75;76.94
59391;BME280;53405;57.012;40.984;2022-09-03T04:02:26;100445.44;;;8.93;77.20
59391;BME280;53405;57.012;40.984;2022-09-03T04:05:14;100450.75;;;9.01;75.87
59391;BME280;53405;57.012;40.984;2022-09-03T04:08:02;100453.69;;;8.98;75.75
59391;BME280;53405;57.012;40.984;2022-09-03T04:10:50;100439.25;;;9.02;75.94
59391;BME280;53405;57.012;40.984;2022-09-03T04:13:40;100428.19;;;8.91;74.97
59391;BME280;53405;57.012;40.984;2022-09-03T04:16:28;100448.75;;;8.95;76.15
59391;BME280;53405;57.012;40.984;2022-09-03T04:19:16;100451.75;;;9.00;75.80
59391;BME280;53405;57.012;40.984;2022-09-03T04:22:05;100451.53;;;9.28;74.76
59391;BME280;53405;57.012;40.984;2022-09-03T04:24:52;100462.41;;;9.33;73.41
59391;BME280;53405;57.012;40.984;2022-09-03T04:27:41;100448.56;;;9.23;73.81
59391;BME280;53405;57.012;40.984;2022-09-03T04:30:29;100460.00;;;9.14;73.58
59391;BME280;53405;57.012;40.984;2022-09-03T04:33:16;100462.81;;;9.20;73.20
59391;BME280;53405;57.012;40.984;2022-09-03T04:36:16;100462.06;;;9.36;73.97
59391;BME280;53405;57.012;40.984;2022-09-03T04:39:04;100467.84;;;9.40;74.09
59391;BME280;53405;57.012;40.984;2022-09-03T04:41:52;100461.91;;;9.38;72.46
59391;BME280;53405;57.012;40.984;2022-09-03T04:44:40;100481.81;;;9.49;72.78
59391;BME280;53405;57.012;40.984;2022-09-03T04:47:27;100455.34;;;9.34;72.79
59391;BME280;53405;57.012;40.984;2022-09-03T04:50:16;100470.00;;;9.45;73.92
59391;BME280;53405;57.012;40.984;2022-09-03T04:53:07;100477.47;;;9.74;73.05
59391;BME280;53405;57.012;40.984;2022-09-03T04:55:54;100484.09;;;9.86;72.68
59391;BME280;53405;57.012;40.984;2022-09-03T04:58:42;100475.09;;;10.30;70.79
59391;BME280;53405;57.012;40.984;2022-09-03T05:01:32;100499.75;;;10.12;70.25
59391;BME280;53405;57.012;40.984;2022-09-03T05:04:20;100490.81;;;9.81;70.65
59391;BME280;53405;57.012;40.984;2022-09-03T05:07:07;100503.13;;;9.80;72.55
59391;BME280;53405;57.012;40.984;2022-09-03T05:09:55;100499.56;;;10.06;70.69
59391;BME280;53405;57.012;40.984;2022-09-03T05:12:43;100508.72;;;9.85;71.88
59391;BME280;53405;57.012;40.984;2022-09-03T05:15:33;100507.56;;;9.71;70.15
59391;BME280;53405;57.012;40.984;2022-09-03T05:18:21;100518.50;;;9.58;70.44
59391;BME280;53405;57.012;40.984;2022-09-03T05:21:12;100512.09;;;9.53;70.25
59391;BME280;53405;57.012;40.984;2022-09-03T05:24:01;100519.66;;;9.56;71.53
59391;BME280;53405;57.012;40.984;2022-09-03T05:26:50;100518.28;;;9.86;70.60
59391;BME280;53405;57.012;40.984;2022-09-03T05:29:37;100514.88;;;10.02;69.14
59391;BME280;53405;57.012;40.984;2022-09-03T05:32:25;100513.25;;;10.09;69.43
59391;BME280;53405;57.012;40.984;2022-09-03T05:35:14;100513.09;;;10.11;69.80
59391;BME280;53405;57.012;40.984;2022-09-03T05:38:04;100514.53;;;10.05;69.61
59391;BME280;53405;57.012;40.984;2022-09-03T05:40:57;100519.69;;;10.23;67.81
59391;BME280;53405;57.012;40.984;2022-09-03T05:43:51;100524.44;;;10.20;69.29
59391;BME280;53405;57.012;40.984;2022-09-03T05:46:42;100507.34;;;10.32;67.84
59391;BME280;53405;57.012;40.984;2022-09-03T05:49:30;100511.34;;;10.36;66.93
59391;BME280;53405;57.012;40.984;2022-09-03T05:52:18;100504.69;;;10.16;68.30
59391;BME280;53405;57.012;40.984;2022-09-03T05:55:08;100528.13;;;10.52;67.13
59391;BME280;53405;57.012;40.984;2022-09-03T05:58:00;100531.91;;;10.41;66.97
59391;BME280;53405;57.012;40.984;2022-09-03T06:00:47;100537.50;;;10.54;66.11
59391;BME280;53405;57.012;40.984;2022-09-03T06:03:35;100531.72;;;10.59;67.04
59391;BME280;53405;57.012;40.984;2022-09-03T06:06:24;100521.22;;;10.42;66.23
59391;BME280;53405;57.012;40.984;2022-09-03T06:09:17;100541.31;;;10.52;66.53
59391;BME280;53405;57.012;40.984;2022-09-03T06:12:05;100544.91;;;10.83;64.72
59391;BME280;53405;57.012;40.984;2022-09-03T06:14:53;100535.38;;;10.66;66.34
59391;BME280;53405;57.012;40.984;2022-09-03T06:17:45;100541.13;;;10.70;65.88
59391;BME280;53405;57.012;40.984;2022-09-03T06:20:33;100544.75;;;10.77;64.82
59391;BME280;53405;57.012;40.984;2022-09-03T06:23:24;100518.88;;;10.64;64.97
59391;BME280;53405;57.012;40.984;2022-09-03T06:26:13;100553.47;;;10.85;63.48
59391;BME280;53405;57.012;40.984;2022-09-03T06:29:03;100546.53;;;10.76;65.76
59391;BME280;53405;57.012;40.984;2022-09-03T06:31:51;100554.28;;;10.94;64.26
59391;BME280;53405;57.012;40.984;2022-09-03T06:34:42;100556.06;;;11.02;62.84
59391;BME280;53405;57.012;40.984;2022-09-03T06:37:30;100541.09;;;10.86;65.06
59391;BME280;53405;57.012;40.984;2022-09-03T06:40:17;100545.69;;;11.17;63.90
59391;BME280;53405;57.012;40.984;2022-09-03T06:43:08;100554.69;;;11.39;63.07
59391;BME280;53405;57.012;40.984;2022-09-03T06:46:00;100525.91;;;11.13;61.53
59391;BME280;53405;57.012;40.984;2022-09-03T06:48:48;100543.72;;;11.11;62.24
59391;BME280;53405;57.012;40.984;2022-09-03T06:51:40;100524.28;;;11.03;62.58
59391;BME280;53405;57.012;40.984;2022-09-03T06:54:29;100547.09;;;11.36;61.11
59391;BME280;53405;57.012;40.984;2022-09-03T06:57:16;100562.22;;;11.50;61.86
59391;BME280;53405;57.012;40.984;2022-09-03T07:00:04;100555.13;;;11.59;60.75
59391;BME280;53405;57.012;40.984;2022-09-03T07:02:56;100525.97;;;11.44;58.87
59391;BME280;53405;57.012;40.984;2022-09-03T07:05:46;100558.66;;;11.74;60.16
59391;BME280;53405;57.012;40.984;2022-09-03T07:08:34;100543.84;;;11.73;59.48
59391;BME280;53405;57.012;40.984;2022-09-03T07:11:24;100550.91;;;11.73;58.11
59391;BME280;53405;57.012;40.984;2022-09-03T07:14:13;100551.97;;;11.55;58.96
59391;BME280;53405;57.012;40.984;2022-09-03T07:17:01;100551.97;;;11.55;57.51
59391;BME280;53405;57.012;40.984;2022-09-03T07:19:49;100567.56;;;11.34;56.60
59391;BME280;53405;57.012;40.984;2022-09-03T07:22:37;100565.75;;;11.26;58.06
59391;BME280;53405;57.012;40.984;2022-09-03T07:25:24;100563.78;;;11.28;56.63
59391;BME280;53405;57.012;40.984;2022-09-03T07:28:13;100583.97;;;11.61;56.22
59391;BME280;53405;57.012;40.984;2022-09-03T07:31:09;100571.06;;;11.66;56.67
59391;BME280;53405;57.012;40.984;2022-09-03T07:34:02;100570.19;;;11.82;57.14
59391;BME280;53405;57.012;40.984;2022-09-03T07:36:52;100568.34;;;11.99;55.88
59391;BME280;53405;57.012;40.984;2022-09-03T07:39:40;100576.75;;;12.25;56.25
59391;BME280;53405;57.012;40.984;2022-09-03T07:42:29;100584.84;;;12.24;55.33
59391;BME280;53405;57.012;40.984;2022-09-03T07:45:17;100574.19;;;12.40;53.38
59391;BME280;53405;57.012;40.984;2022-09-03T07:48:05;100570.50;;;12.50;49.70
59391;BME280;53405;57.012;40.984;2022-09-03T07:51:00;100584.97;;;12.31;50.59
59391;BME280;53405;57.012;40.984;2022-09-03T07:53:48;100579.72;;;12.54;50.02
59391;BME280;53405;57.012;40.984;2022-09-03T07:56:39;100584.00;;;12.93;49.66
59391;BME280;53405;57.012;40.984;2022-09-03T07:59:27;100571.22;;;12.81;48.85
59391;BME280;53405;57.012;40.984;2022-09-03T08:02:15;100589.41;;;12.61;49.21
59391;BME280;53405;57.012;40.984;2022-09-03T08:05:02;100584.06;;;12.70;51.17
59391;BME280;53405;57.012;40.984;2022-09-03T08:07:50;100573.06;;;12.58;51.58
59391;BME280;53405;57.012;40.984;2022-09-03T08:10:38;100591.69;;;12.41;49.95
59391;BME280;53405;57.012;40.984;2022-09-03T08:13:26;100562.94;;;12.15;50.48
59391;BME280;53405;57.012;40.984;2022-09-03T08:16:16;100578.13;;;12.68;49.43
59391;BME280;53405;57.012;40.984;2022-09-03T08:19:06;100592.00;;;13.23;47.63
59391;BME280;53405;57.012;40.984;2022-09-03T08:21:54;100582.09;;;13.69;48.69
59391;BME280;53405;57.012;40.984;2022-09-03T08:24:41;100587.06;;;14.09;45.63
59391;BME280;53405;57.012;40.984;2022-09-03T08:27:30;100594.53;;;13.69;46.20
59391;BME280;53405;57.012;40.984;2022-09-03T08:30:18;100594.81;;;13.59;49.29
59391;BME280;53405;57.012;40.984;2022-09-03T08:33:07;100593.38;;;14.08;45.66
59391;BME280;53405;57.012;40.984;2022-09-03T08:35:55;100601.28;;;13.57;46.76
59391;BME280;53405;57.012;40.984;2022-09-03T08:38:44;100593.00;;;13.22;48.96
59391;BME280;53405;57.012;40.984;2022-09-03T08:47:39;100598.94;;;12.86;47.95
59391;BME280;53405;57.012;40.984;2022-09-03T08:50:30;100598.94;;;12.86;49.88
59391;BME280;53405;57.012;40.984;2022-09-03T08:53:39;100585.69;;;13.47;47.47
59391;BME280;53405;57.012;40.984;2022-09-03T08:56:31;100592.59;;;13.48;48.74
59391;BME280;53405;57.012;40.984;2022-09-03T08:59:22;100620.53;;;13.50;49.48
59391;BME280;53405;57.012;40.984;2022-09-03T09:02:33;100599.31;;;13.95;48.53
59391;BME280;53405;57.012;40.984;2022-09-03T09:05:49;100605.47;;;15.25;44.52
59391;BME280;53405;57.012;40.984;2022-09-03T09:08:52;100604.91;;;15.65;43.28
59391;BME280;53405;57.012;40.984;2022-09-03T09:15:36;100606.47;;;16.69;40.51
59391;BME280;53405;57.012;40.984;2022-09-03T09:21:48;100593.00;;;14.69;42.71
59391;BME280;53405;57.012;40.984;2022-09-03T09:24:44;100600.50;;;14.66;43.26
59391;BME280;53405;57.012;40.984;2022-09-03T09:27:33;100579.06;;;14.45;43.37
59391;BME280;53405;57.012;40.984;2022-09-03T09:30:23;100554.78;;;14.42;41.58
59391;BME280;53405;57.012;40.984;2022-09-03T09:33:15;100581.56;;;15.95;39.74
59391;BME280;53405;57.012;40.984;2022-09-03T09:36:07;100610.34;;;16.53;37.75
59391;BME280;53405;57.012;40.984;2022-09-03T09:39:07;100598.50;;;15.87;37.94
59391;BME280;53405;57.012;40.984;2022-09-03T09:42:06;100594.25;;;15.58;40.24
59391;BME280;53405;57.012;40.984;2022-09-03T09:45:08;100601.91;;;16.23;39.25
59391;BME280;53405;57.012;40.984;2022-09-03T09:47:58;100601.16;;;16.76;37.74
59391;BME280;53405;57.012;40.984;2022-09-03T09:50:46;100600.34;;;17.42;36.37
59391;BME280;53405;57.012;40.984;2022-09-03T09:53:34;100616.88;;;17.58;36.83
59391;BME280;53405;57.012;40.984;2022-09-03T09:56:23;100595.66;;;17.24;36.66
59391;BME280;53405;57.012;40.984;2022-09-03T09:59:12;100595.84;;;15.52;39.04
59391;BME280;53405;57.012;40.984;2022-09-03T10:02:11;100599.56;;;14.95;40.66
59391;BME280;53405;57.012;40.984;2022-09-03T10:05:21;100588.63;;;14.83;43.55
59391;BME280;53405;57.012;40.984;2022-09-03T10:08:20;100604.16;;;14.86;44.45
59391;BME280;53405;57.012;40.984;2022-09-03T10:11:08;100602.41;;;14.93;42.41
59391;BME280;53405;57.012;40.984;2022-09-03T10:13:56;100605.47;;;14.54;44.17
59391;BME280;53405;57.012;40.984;2022-09-03T10:16:49;100597.38;;;14.40;43.39
59391;BME280;53405;57.012;40.984;2022-09-03T10:20:12;100603.84;;;14.38;43.90
59391;BME280;53405;57.012;40.984;2022-09-03T10:23:24;100612.03;;;13.85;44.45
59391;BME280;53405;57.012;40.984;2022-09-03T10:26:20;100604.38;;;13.60;46.15
59391;BME280;53405;57.012;40.984;2022-09-03T10:29:19;100603.34;;;13.76;47.53
59391;BME280;53405;57.012;40.984;2022-09-03T10:35:29;100608.25;;;14.09;45.88
59391;BME280;53405;57.012;40.984;2022-09-03T10:41:24;100607.22;;;14.46;44.74
59391;BME280;53405;57.012;40.984;2022-09-03T10:44:46;100615.19;;;14.46;44.66
59391;BME280;53405;57.012;40.984;2022-09-03T10:50:53;100614.78;;;14.28;46.70
59391;BME280;53405;57.012;40.984;2022-09-03T10:54:08;100617.34;;;15.01;43.50
59391;BME280;53405;57.012;40.984;2022-09-03T11:00:15;100598.38;;;15.32;42.71
59391;BME280;53405;57.012;40.984;2022-09-03T11:06:08;100605.72;;;15.65;42.45
59391;BME280;53405;57.012;40.984;2022-09-03T11:09:04;100619.59;;;16.02;40.39
59391;BME280;53405;57.012;40.984;2022-09-03T11:12:12;100604.38;;;15.13;42.03
59391;BME280;53405;57.012;40.984;2022-09-03T11:15:33;100602.13;;;14.45;43.38
59391;BME280;53405;57.012;40.984;2022-09-03T11:19:24;100609.81;;;14.40;43.82
59391;BME280;53405;57.012;40.984;2022-09-03T11:21:51;100612.72;;;14.45;44.36
59391;BME280;53405;57.012;40.984;2022-09-03T11:24:40;100612.16;;;14.50;44.81
59391;BME280;53405;57.012;40.984;2022-09-03T11:33:23;100596.38;;;14.41;46.90
59391;BME280;53405;57.012;40.984;2022-09-03T11:36:12;100577.75;;;14.56;45.06
59391;BME280;53405;57.012;40.984;2022-09-03T11:39:00;100596.63;;;14.46;47.01
59391;BME280;53405;57.012;40.984;2022-09-03T11:45:35;100610.44;;;13.90;46.70
59391;BME280;53405;57.012;40.984;2022-09-03T11:48:43;100621.88;;;13.91;45.73
59391;BME280;53405;57.012;40.984;2022-09-03T11:51:33;100620.41;;;13.59;47.66
59391;BME280;53405;57.012;40.984;2022-09-03T11:54:25;100626.63;;;13.36;49.64
59391;BME280;53405;57.012;40.984;2022-09-03T11:57:24;100613.50;;;13.19;49.60
59391;BME280;53405;57.012;40.984;2022-09-03T12:00:15;100613.16;;;13.61;49.45
59391;BME280;53405;57.012;40.984;2022-09-03T12:03:13;100612.03;;;13.40;49.08
59391;BME280;53405;57.012;40.984;2022-09-03T12:19:03;100612.53;;;12.82;56.14
59391;BME280;53405;57.012;40.984;2022-09-03T12:21:53;100606.41;;;12.82;55.88
59391;BME280;53405;57.012;40.984;2022-09-03T12:24:43;100610.69;;;13.21;54.25
59391;BME280;53405;57.012;40.984;2022-09-03T12:27:32;100584.19;;;13.29;53.92
59391;BME280;53405;57.012;40.984;2022-09-03T12:30:22;100617.03;;;13.95;54.03
59391;BME280;53405;57.012;40.984;2022-09-03T12:33:12;100584.44;;;14.31;49.36
59391;BME280;53405;57.012;40.984;2022-09-03T12:36:00;100579.16;;;14.31;46.74
59391;BME280;53405;57.012;40.984;2022-09-03T12:38:48;100590.25;;;14.41;46.20
59391;BME280;53405;57.012;40.984;2022-09-03T12:42:04;100577.56;;;14.15;46.84
59391;BME280;53405;57.012;40.984;2022-09-03T12:44:53;100588.59;;;14.18;45.82
59391;BME280;53405;57.012;40.984;2022-09-03T12:47:42;100580.03;;;14.16;46.01
59391;BME280;53405;57.012;40.984;2022-09-03T12:50:30;100582.16;;;14.27;44.85
59391;BME280;53405;57.012;40.984;2022-09-03T12:53:23;100580.16;;;14.51;43.41
59391;BME280;53405;57.012;40.984;2022-09-03T12:56:11;100581.41;;;14.34;43.83
59391;BME280;53405;57.012;40.984;2022-09-03T12:59:08;100584.34;;;14.02;43.27
59391;BME280;53405;57.012;40.984;2022-09-03T13:02:02;100575.88;;;13.77;44.54
59391;BME280;53405;57.012;40.984;2022-09-03T13:04:52;100585.50;;;14.00;45.14
59391;BME280;53405;57.012;40.984;2022-09-03T13:07:45;100582.88;;;14.00;45.22
59391;BME280;53405;57.012;40.984;2022-09-03T13:10:37;100596.09;;;14.15;44.98
59391;BME280;53405;57.012;40.984;2022-09-03T13:13:35;100589.41;;;14.19;45.18
59391;BME280;53405;57.012;40.984;2022-09-03T13:28:38;100597.63;;;13.05;55.45
59391;BME280;53405;57.012;40.984;2022-09-03T13:34:25;100589.78;;;12.73;56.57
59391;BME280;53405;57.012;40.984;2022-09-03T13:43:42;100577.00;;;13.38;56.86
59391;BME280;53405;57.012;40.984;2022-09-03T13:46:44;100570.34;;;13.42;55.12
59391;BME280;53405;57.012;40.984;2022-09-03T13:49:46;100567.09;;;13.32;56.28
59391;BME280;53405;57.012;40.984;2022-09-03T13:53:16;100572.72;;;13.37;57.81
59391;BME280;53405;57.012;40.984;2022-09-03T13:56:26;100572.16;;;13.57;53.81
59391;BME280;53405;57.012;40.984;2022-09-03T14:05:24;100571.41;;;13.48;54.34
59391;BME280;53405;57.012;40.984;2022-09-03T14:08:44;100577.34;;;13.65;55.97
59391;BME280;53405;57.012;40.984;2022-09-03T14:14:52;100570.16;;;13.59;53.40
59391;BME280;53405;57.012;40.984;2022-09-03T14:18:02;100571.25;;;13.49;54.28
59391;BME280;53405;57.012;40.984;2022-09-03T14:21:03;100568.41;;;13.51;50.91
59391;BME280;53405;57.012;40.984;2022-09-03T14:27:09;100555.91;;;13.45;51.39
59391;BME280;53405;57.012;40.984;2022-09-03T14:30:00;100564.31;;;13.48;51.58
59391;BME280;53405;57.012;40.984;2022-09-03T14:32:55;100564.69;;;13.45;52.98
59391;BME280;53405;57.012;40.984;2022-09-03T14:47:53;100564.19;;;13.27;52.62
59391;BME280;53405;57.012;40.984;2022-09-03T15:00:59;100533.56;;;13.32;52.23
59391;BME280;53405;57.012;40.984;2022-09-03T15:16:32;100556.84;;;12.84;52.91
59391;BME280;53405;57.012;40.984;2022-09-03T15:20:15;100545.72;;;12.89;52.34
59391;BME280;53405;57.012;40.984;2022-09-03T15:23:19;100532.41;;;12.82;52.28
59391;BME280;53405;57.012;40.984;2022-09-03T15:26:29;100547.84;;;12.93;51.76
59391;BME280;53405;57.012;40.984;2022-09-03T15:29:28;100552.28;;;12.93;51.76
59391;BME280;53405;57.012;40.984;2022-09-03T15:32:56;100541.06;;;12.91;52.06
59391;BME280;53405;57.012;40.984;2022-09-03T15:39:20;100530.72;;;13.04;52.73
59391;BME280;53405;57.012;40.984;2022-09-03T15:42:17;100535.16;;;13.04;51.90
59391;BME280;53405;57.012;40.984;2022-09-03T15:52:28;100539.72;;;12.95;53.49
59391;BME280;53405;57.012;40.984;2022-09-03T15:55:10;100530.59;;;12.82;53.28
59391;BME280;53405;57.012;40.984;2022-09-03T15:58:36;100524.72;;;12.72;54.84
59391;BME280;53405;57.012;40.984;2022-09-03T16:08:16;100535.69;;;12.46;54.46
59391;BME280;53405;57.012;40.984;2022-09-03T16:11:30;100533.47;;;12.35;55.23
59391;BME280;53405;57.012;40.984;2022-09-03T16:17:24;100528.28;;;12.18;56.64
59391;BME280;53405;57.012;40.984;2022-09-03T16:20:21;100531.59;;;12.20;55.69
59391;BME280;53405;57.012;40.984;2022-09-03T16:23:20;100532.41;;;12.21;56.12
59391;BME280;53405;57.012;40.984;2022-09-03T16:29:13;100534.94;;;12.06;56.80
59391;BME280;53405;57.012;40.984;2022-09-03T16:32:26;100532.13;;;12.07;57.55
59391;BME280;53405;57.012;40.984;2022-09-03T16:38:41;100537.94;;;12.03;57.17
59391;BME280;53405;57.012;40.984;2022-09-03T16:59:44;100533.16;;;11.67;59.85
59391;BME280;53405;57.012;40.984;2022-09-03T17:06:43;100539.03;;;11.37;61.99
59391;BME280;53405;57.012;40.984;2022-09-03T17:12:32;100554.03;;;11.29;62.61
59391;BME280;53405;57.012;40.984;2022-09-03T17:15:56;100555.38;;;11.25;61.38
59391;BME280;53405;57.012;40.984;2022-09-03T17:18:52;100563.13;;;11.26;60.60
59391;BME280;53405;57.012;40.984;2022-09-03T17:24:57;100534.97;;;11.02;61.20
59391;BME280;53405;57.012;40.984;2022-09-03T17:28:26;100566.63;;;11.10;62.08
59391;BME280;53405;57.012;40.984;2022-09-03T17:31:47;100562.50;;;10.99;61.87
59391;BME280;53405;57.012;40.984;2022-09-03T17:41:14;100568.28;;;10.78;62.67
59391;BME280;53405;57.012;40.984;2022-09-03T17:50:25;100561.34;;;10.61;63.55
59391;BME280;53405;57.012;40.984;2022-09-03T17:53:19;100562.38;;;10.60;63.13
59391;BME280;53405;57.012;40.984;2022-09-03T17:56:26;100557.59;;;10.47;63.36
59391;BME280;53405;57.012;40.984;2022-09-03T18:02:38;100556.41;;;10.41;64.34
59391;BME280;53405;57.012;40.984;2022-09-03T18:05:27;100557.06;;;10.35;63.90
59391;BME280;53405;57.012;40.984;2022-09-03T18:11:47;100557.66;;;10.12;65.23
59391;BME280;53405;57.012;40.984;2022-09-03T18:14:48;100552.19;;;10.06;64.99
59391;BME280;53405;57.012;40.984;2022-09-03T18:17:44;100552.88;;;10.00;64.93
59391;BME280;53405;57.012;40.984;2022-09-03T18:20:43;100550.03;;;9.93;64.76
59391;BME280;53405;57.012;40.984;2022-09-03T18:24:30;100559.91;;;9.91;64.98
59391;BME280;53405;57.012;40.984;2022-09-03T18:27:49;100552.78;;;9.83;64.72
59391;BME280;53405;57.012;40.984;2022-09-03T18:30:59;100557.41;;;9.89;65.06
59391;BME280;53405;57.012;40.984;2022-09-03T18:34:07;100542.91;;;9.77;64.62
59391;BME280;53405;57.012;40.984;2022-09-03T18:37:17;100553.28;;;9.79;64.87
59391;BME280;53405;57.012;40.984;2022-09-03T18:40:36;100556.41;;;9.82;64.45
59391;BME280;53405;57.012;40.984;2022-09-03T18:44:10;100551.47;;;9.79;65.01
59391;BME280;53405;57.012;40.984;2022-09-03T18:55:09;100562.69;;;9.89;64.66
59391;BME280;53405;57.012;40.984;2022-09-03T19:01:41;100548.06;;;9.95;62.75
59391;BME280;53405;57.012;40.984;2022-09-03T19:05:10;100547.06;;;9.88;62.34
59391;BME280;53405;57.012;40.984;2022-09-03T19:12:05;100535.47;;;9.64;63.65
59391;BME280;53405;57.012;40.984;2022-09-03T19:15:26;100544.47;;;9.53;65.61
59391;BME280;53405;57.012;40.984;2022-09-03T19:25:34;100537.47;;;9.36;65.22
59391;BME280;53405;57.012;40.984;2022-09-03T19:28:44;100515.78;;;9.34;64.01
59391;BME280;53405;57.012;40.984;2022-09-03T19:31:56;100534.25;;;9.50;65.06
59391;BME280;53405;57.012;40.984;2022-09-03T19:35:17;100526.66;;;9.39;65.03
59391;BME280;53405;57.012;40.984;2022-09-03T19:42:24;100541.47;;;9.48;63.40
59391;BME280;53405;57.012;40.984;2022-09-03T19:45:49;100537.63;;;9.69;64.05